Time,TemperatureF,DewpointF,PressureIn,WindDirection,WindDirectionDegrees,WindSpeedMPH,WindSpeedGustMPH,Humidity,HourlyPrecipIn,Conditions,Clouds,dailyrainin,SoftwareType,DateUTC
2013-12-02 00:03:00,54.5,53.0,29.88,SSW,207,0.0,0.0,95,0.00,,,0.00,weatherlink.com 1.10,2013-12-02 06:03:00,
2013-12-02 00:18:00,54.1,53.0,29.88,SSE,153,0.0,0.0,95,0.00,,,0.00,weatherlink.com 1.10,2013-12-02 06:18:00,
2013-12-02 00:33:00,54.1,53.0,29.88,SSE,153,0.0,0.0,95,0.00,,,0.00,weatherlink.com 1.10,2013-12-02 06:33:00,
2013-12-02 00:48:00,53.2,52.0,29.88,SSE,152,0.0,0.0,95,0.00,,,0.00,weatherlink.com 1.10,2013-12-02 06:48:00,
2013-12-02 01:04:00,53.1,52.0,29.87,SSE,166,0.0,0.0,96,0.00,,,0.00,weatherlink.com 1.10,2013-12-02 07:04:00,
2013-12-02 01:19:00,52.5,51.0,29.86,SSE,160,0.0,0.0,95,0.00,,,0.00,weatherlink.com 1.10,2013-12-02 07:19:00,
2013-12-02 01:34:00,50.9,50.0,29.86,SE,129,0.0,0.0,96,0.00,,,0.00,weatherlink.com 1.10,2013-12-02 07:34:00,
2013-12-02 01:49:00,51.0,50.0,29.86,SE,129,0.0,0.0,96,0.00,,,0.00,weatherlink.com 1.10,2013-12-02 07:49:00,
2013-12-02 02:04:00,50.5,49.0,29.86,SE,130,0.0,0.0,96,0.00,,,0.00,weatherlink.com 1.10,2013-12-02 08:04:00,
2013-12-02 02:19:00,50.5,50.0,29.85,SE,129,0.0,0.0,97,0.00,,,0.00,weatherlink.com 1.10,2013-12-02 08:19:00,
2013-12-02 02:34:00,50.3,50.0,29.85,SE,129,0.0,0.0,97,0.00,,,0.00,weatherlink.com 1.10,2013-12-02 08:34:00,
2013-12-02 02:49:00,50.5,50.0,29.84,WSW,257,0.0,0.0,97,0.00,,,0.00,weatherlink.com 1.10,2013-12-02 08:49:00,
2013-12-02 03:04:00,49.6,49.0,29.84,West,264,0.0,0.0,96,0.00,,,0.00,weatherlink.com 1.10,2013-12-02 09:04:00,
2013-12-02 03:19:00,48.7,48.0,29.84,West,264,0.0,0.0,96,0.00,,,0.00,weatherlink.com 1.10,2013-12-02 09:19:00,
2013-12-02 03:34:00,48.5,48.0,29.83,West,264,0.0,0.0,97,0.00,,,0.00,weatherlink.com 1.10,2013-12-02 09:34:00,
2013-12-02 03:49:00,48.1,47.0,29.83,West,264,0.0,0.0,97,0.00,,,0.00,weatherlink.com 1.10,2013-12-02 09:49:00,
2013-12-02 04:04:00,48.3,48.0,29.83,West,264,0.0,0.0,97,0.00,,,0.00,weatherlink.com 1.10,2013-12-02 10:04:00,
2013-12-02 04:19:00,48.4,48.0,29.82,SSW,200,0.0,0.0,97,0.00,,,0.00,weatherlink.com 1.10,2013-12-02 10:19:00,
2013-12-02 04:34:00,47.8,47.0,29.82,SSW,200,0.0,0.0,97,0.00,,,0.00,weatherlink.com 1.10,2013-12-02 10:34:00,
2013-12-02 04:49:00,47.9,47.0,29.81,SSW,200,0.0,0.0,97,0.00,,,0.00,weatherlink.com 1.10,2013-12-02 10:49:00,
2013-12-02 05:04:00,47.3,47.0,29.81,SSW,200,0.0,0.0,97,0.00,,,0.00,weatherlink.com 1.10,2013-12-02 11:04:00,
2013-12-02 05:19:00,47.7,47.0,29.81,West,260,0.0,0.0,97,0.00,,,0.00,weatherlink.com 1.10,2013-12-02 11:19:00,
2013-12-02 05:34:00,46.4,46.0,29.81,West,260,0.0,0.0,97,0.00,,,0.00,weatherlink.com 1.10,2013-12-02 11:34:00,
2013-12-02 05:49:00,47.0,46.0,29.81,West,260,0.0,0.0,97,0.00,,,0.00,weatherlink.com 1.10,2013-12-02 11:49:00,
2013-12-02 06:04:00,45.6,45.0,29.80,ESE,115,0.0,0.0,97,0.00,,,0.00,weatherlink.com 1.10,2013-12-02 12:04:00,
2013-12-02 06:19:00,45.7,45.0,29.81,ESE,114,0.0,0.0,97,0.00,,,0.00,weatherlink.com 1.10,2013-12-02 12:19:00,
2013-12-02 06:34:00,45.8,45.0,29.81,ESE,115,0.0,0.0,97,0.00,,,0.00,weatherlink.com 1.10,2013-12-02 12:34:00,
2013-12-02 06:49:00,45.8,45.0,29.81,ESE,114,0.0,0.0,97,0.00,,,0.00,weatherlink.com 1.10,2013-12-02 12:49:00,
2013-12-02 07:04:00,46.3,46.0,29.81,ESE,114,0.0,0.0,97,0.00,,,0.00,weatherlink.com 1.10,2013-12-02 13:04:00,
2013-12-02 07:19:00,46.5,46.0,29.82,NE,44,0.0,0.0,97,0.00,,,0.00,weatherlink.com 1.10,2013-12-02 13:19:00,
2013-12-02 07:34:00,47.3,47.0,29.82,NNW,327,2.0,2.0,97,0.01,,,0.01,weatherlink.com 1.10,2013-12-02 13:34:00,
2013-12-02 07:49:00,47.9,47.0,29.81,NW,321,1.0,2.0,97,0.01,,,0.01,weatherlink.com 1.10,2013-12-02 13:49:00,
2013-12-02 08:04:00,48.3,48.0,29.81,NNW,335,0.0,2.0,97,0.01,,,0.01,weatherlink.com 1.10,2013-12-02 14:04:00,
2013-12-02 08:19:00,48.7,48.0,29.82,NW,309,2.0,2.0,96,0.01,,,0.01,weatherlink.com 1.10,2013-12-02 14:19:00,
2013-12-02 08:34:00,48.7,48.0,29.81,WNW,287,0.0,2.0,96,0.00,,,0.01,weatherlink.com 1.10,2013-12-02 14:34:00,
2013-12-02 08:49:00,48.8,48.0,29.81,WNW,300,0.0,2.0,95,0.00,,,0.01,weatherlink.com 1.10,2013-12-02 14:49:00,
2013-12-02 09:04:00,48.8,48.0,29.81,WNW,300,0.0,1.0,95,0.00,,,0.01,weatherlink.com 1.10,2013-12-02 15:04:00,
2013-12-02 09:19:00,49.2,48.0,29.81,WNW,300,0.0,0.0,94,0.00,,,0.01,weatherlink.com 1.10,2013-12-02 15:19:00,
2013-12-02 09:34:00,49.6,48.0,29.82,WNW,302,0.0,2.0,94,0.00,,,0.01,weatherlink.com 1.10,2013-12-02 15:34:00,
2013-12-02 09:49:00,50.2,48.0,29.82,NW,322,1.0,2.0,92,0.00,,,0.01,weatherlink.com 1.10,2013-12-02 15:49:00,
2013-12-02 10:04:00,50.8,48.0,29.81,West,276,1.0,2.0,91,0.00,,,0.01,weatherlink.com 1.10,2013-12-02 16:04:00,
2013-12-02 10:19:00,51.7,49.0,29.82,WNW,298,1.0,1.0,89,0.00,,,0.01,weatherlink.com 1.10,2013-12-02 16:19:00,
2013-12-02 10:34:00,52.3,49.0,29.81,NW,314,0.0,2.0,88,0.00,,,0.01,weatherlink.com 1.10,2013-12-02 16:34:00,
2013-12-02 10:49:00,53.2,49.0,29.80,NW,307,0.0,2.0,86,0.00,,,0.01,weatherlink.com 1.10,2013-12-02 16:49:00,
2013-12-02 11:05:00,54.2,50.0,29.79,WNW,299,1.0,2.0,85,0.00,,,0.01,weatherlink.com 1.10,2013-12-02 17:05:00,
2013-12-02 11:20:00,54.6,51.0,29.79,NNW,331,0.0,3.0,87,0.00,,,0.01,weatherlink.com 1.10,2013-12-02 17:20:00,
2013-12-02 11:35:00,59.7,53.0,29.78,SSE,153,1.0,8.0,78,0.00,,,0.01,weatherlink.com 1.10,2013-12-02 17:35:00,
2013-12-02 11:50:00,62.0,53.0,29.77,WSW,239,2.0,4.0,72,0.00,,,0.01,weatherlink.com 1.10,2013-12-02 17:50:00,
2013-12-02 12:05:00,63.3,53.0,29.76,WSW,239,1.0,5.0,69,0.00,,,0.01,weatherlink.com 1.10,2013-12-02 18:05:00,
2013-12-02 12:20:00,64.5,54.0,29.75,SSW,210,3.0,5.0,68,0.00,,,0.01,weatherlink.com 1.10,2013-12-02 18:20:00,
2013-12-02 12:35:00,65.2,53.0,29.73,WSW,257,2.0,7.0,65,0.00,,,0.01,weatherlink.com 1.10,2013-12-02 18:35:00,
2013-12-02 12:50:00,65.9,53.0,29.72,SW,224,2.0,6.0,64,0.00,,,0.01,weatherlink.com 1.10,2013-12-02 18:50:00,
2013-12-02 13:05:00,66.4,53.0,29.71,West,280,1.0,6.0,63,0.00,,,0.01,weatherlink.com 1.10,2013-12-02 19:05:00,
2013-12-02 13:20:00,67.0,53.0,29.71,SE,145,4.0,7.0,61,0.00,,,0.01,weatherlink.com 1.10,2013-12-02 19:20:00,
2013-12-02 13:35:00,67.1,52.0,29.70,South,174,3.0,7.0,59,0.00,,,0.01,weatherlink.com 1.10,2013-12-02 19:35:00,
2013-12-02 13:50:00,67.6,52.0,29.69,SW,233,2.0,5.0,57,0.00,,,0.01,weatherlink.com 1.10,2013-12-02 19:50:00,
2013-12-02 14:05:00,68.3,52.0,29.68,SSE,162,2.0,7.0,57,0.00,,,0.01,weatherlink.com 1.10,2013-12-02 20:05:00,
2013-12-02 14:20:00,68.8,52.0,29.67,WSW,257,3.0,9.0,56,0.00,,,0.01,weatherlink.com 1.10,2013-12-02 20:20:00,
2013-12-02 14:35:00,68.6,52.0,29.68,South,176,6.0,8.0,55,0.00,,,0.01,weatherlink.com 1.10,2013-12-02 20:35:00,
2013-12-02 14:50:00,68.9,51.0,29.68,West,277,3.0,8.0,53,0.00,,,0.01,weatherlink.com 1.10,2013-12-02 20:50:00,
2013-12-02 15:05:00,69.1,51.0,29.68,SSW,195,4.0,5.0,53,0.00,,,0.01,weatherlink.com 1.10,2013-12-02 21:05:00,
2013-12-02 15:20:00,68.9,50.0,29.67,SSW,212,2.0,7.0,52,0.00,,,0.01,weatherlink.com 1.10,2013-12-02 21:20:00,
2013-12-02 15:35:00,68.6,51.0,29.67,SSE,166,4.0,5.0,53,0.00,,,0.01,weatherlink.com 1.10,2013-12-02 21:35:00,
2013-12-02 15:50:00,68.2,51.0,29.67,South,187,2.0,7.0,54,0.00,,,0.01,weatherlink.com 1.10,2013-12-02 21:50:00,
2013-12-02 16:05:00,67.7,52.0,29.66,SSW,195,3.0,8.0,57,0.00,,,0.01,weatherlink.com 1.10,2013-12-02 22:05:00,
2013-12-02 16:20:00,67.4,52.0,29.67,SSW,201,1.0,7.0,59,0.00,,,0.01,weatherlink.com 1.10,2013-12-02 22:20:00,
2013-12-02 16:35:00,66.8,53.0,29.66,South,170,1.0,3.0,61,0.00,,,0.01,weatherlink.com 1.10,2013-12-02 22:35:00,
2013-12-02 16:50:00,66.0,52.0,29.67,South,172,0.0,4.0,61,0.00,,,0.01,weatherlink.com 1.10,2013-12-02 22:50:00,
2013-12-02 17:06:00,65.2,52.0,29.68,SW,216,0.0,1.0,63,0.00,,,0.01,weatherlink.com 1.10,2013-12-02 23:06:00,
2013-12-02 17:20:00,63.4,52.0,29.68,ESE,105,0.0,3.0,66,0.00,,,0.01,weatherlink.com 1.10,2013-12-02 23:20:00,
2013-12-02 17:35:00,61.9,52.0,29.68,ESE,102,0.0,0.0,70,0.00,,,0.01,weatherlink.com 1.10,2013-12-02 23:35:00,
2013-12-02 17:50:00,60.7,52.0,29.68,ESE,115,2.0,3.0,72,0.00,,,0.01,weatherlink.com 1.10,2013-12-02 23:50:00,
2013-12-02 18:05:00,61.1,52.0,29.68,ESE,108,2.0,2.0,73,0.00,,,0.01,weatherlink.com 1.10,2013-12-03 00:05:00,
2013-12-02 18:20:00,60.6,52.0,29.69,ESE,108,3.0,3.0,73,0.00,,,0.01,weatherlink.com 1.10,2013-12-03 00:20:00,
2013-12-02 18:35:00,59.5,52.0,29.69,ESE,109,4.0,4.0,76,0.00,,,0.01,weatherlink.com 1.10,2013-12-03 00:35:00,
2013-12-02 18:50:00,59.2,52.0,29.69,ESE,123,4.0,4.0,78,0.00,,,0.01,weatherlink.com 1.10,2013-12-03 00:50:00,
2013-12-02 19:06:00,58.1,52.0,29.69,ESE,103,3.0,5.0,80,0.00,,,0.01,weatherlink.com 1.10,2013-12-03 01:06:00,
2013-12-02 19:21:00,58.1,52.0,29.69,ESE,113,4.0,4.0,81,0.00,,,0.01,weatherlink.com 1.10,2013-12-03 01:21:00,
2013-12-02 19:36:00,57.2,52.0,29.69,ESE,113,3.0,5.0,83,0.00,,,0.01,weatherlink.com 1.10,2013-12-03 01:36:00,
2013-12-02 19:51:00,56.6,52.0,29.70,ESE,118,2.0,4.0,84,0.00,,,0.01,weatherlink.com 1.10,2013-12-03 01:51:00,
2013-12-02 20:06:00,55.8,51.0,29.69,SE,127,1.0,4.0,85,0.00,,,0.01,weatherlink.com 1.10,2013-12-03 02:06:00,
2013-12-02 20:21:00,55.1,51.0,29.69,ESE,110,2.0,4.0,87,0.00,,,0.01,weatherlink.com 1.10,2013-12-03 02:21:00,
2013-12-02 20:36:00,54.7,51.0,29.68,ESE,120,1.0,3.0,87,0.00,,,0.01,weatherlink.com 1.10,2013-12-03 02:36:00,
2013-12-02 20:51:00,54.1,51.0,29.68,SE,141,1.0,2.0,88,0.00,,,0.01,weatherlink.com 1.10,2013-12-03 02:51:00,
2013-12-02 21:06:00,53.7,51.0,29.69,ESE,115,1.0,1.0,89,0.00,,,0.01,weatherlink.com 1.10,2013-12-03 03:06:00,
2013-12-02 21:21:00,54.0,51.0,29.68,ESE,118,3.0,4.0,88,0.00,,,0.01,weatherlink.com 1.10,2013-12-03 03:21:00,
2013-12-02 21:36:00,54.1,50.0,29.67,ESE,119,2.0,4.0,87,0.00,,,0.01,weatherlink.com 1.10,2013-12-03 03:36:00,
2013-12-02 21:51:00,53.6,50.0,29.67,ESE,122,1.0,2.0,87,0.00,,,0.01,weatherlink.com 1.10,2013-12-03 03:51:00,
2013-12-02 22:06:00,53.4,50.0,29.67,ESE,117,1.0,2.0,88,0.00,,,0.01,weatherlink.com 1.10,2013-12-03 04:06:00,
2013-12-02 22:21:00,53.4,50.0,29.67,ESE,113,4.0,5.0,87,0.00,,,0.01,weatherlink.com 1.10,2013-12-03 04:21:00,
2013-12-02 22:36:00,52.7,49.0,29.67,ESE,118,3.0,4.0,88,0.00,,,0.01,weatherlink.com 1.10,2013-12-03 04:36:00,
2013-12-02 22:51:00,52.1,49.0,29.68,ESE,106,3.0,4.0,89,0.00,,,0.01,weatherlink.com 1.10,2013-12-03 04:51:00,
2013-12-02 23:06:00,51.6,49.0,29.68,ENE,72,0.0,1.0,90,0.00,,,0.01,weatherlink.com 1.10,2013-12-03 05:06:00,
2013-12-02 23:21:00,50.9,48.0,29.67,ESE,116,0.0,0.0,90,0.00,,,0.01,weatherlink.com 1.10,2013-12-03 05:21:00,
2013-12-02 23:36:00,50.2,48.0,29.68,ESE,115,0.0,1.0,91,0.00,,,0.01,weatherlink.com 1.10,2013-12-03 05:36:00,
2013-12-02 23:51:00,49.7,48.0,29.68,ESE,116,0.0,1.0,93,0.00,,,0.01,weatherlink.com 1.10,2013-12-03 05:51:00,